createdAt,value
2019-05-29T00:00:46.881Z,3.60
2019-05-29T00:03:18.638Z,3.30
2019-05-29T00:05:49.356Z,3.30
2019-05-29T00:08:20.137Z,3.20
2019-05-29T00:10:50.809Z,3.92
2019-05-29T00:13:21.476Z,4.10
2019-05-29T00:15:54.341Z,4.00
2019-05-29T00:18:25.171Z,3.70
2019-05-29T00:20:55.870Z,3.87
2019-05-29T00:23:26.594Z,3.45
2019-05-29T00:25:57.426Z,3.65
2019-05-29T00:28:28.621Z,3.42
2019-05-29T00:31:01.611Z,3.83
2019-05-29T00:33:33.663Z,3.27
2019-05-29T00:36:04.379Z,4.30
2019-05-29T00:38:35.150Z,3.95
2019-05-29T00:41:08.878Z,3.75
2019-05-29T00:43:40.494Z,4.08
2019-05-29T00:46:11.397Z,3.60
2019-05-29T00:48:42.235Z,3.67
2019-05-29T00:51:13.018Z,3.90
2019-05-29T00:53:43.801Z,3.52
2019-05-29T00:56:16.677Z,4.08
2019-05-29T00:58:49.032Z,3.62
2019-05-29T01:01:20.135Z,3.10
2019-05-29T01:03:52.279Z,3.55
2019-05-29T01:06:22.920Z,3.70
2019-05-29T01:08:53.832Z,3.20
2019-05-29T01:11:25.076Z,3.52
2019-05-29T01:13:55.747Z,3.02
2019-05-29T01:16:26.474Z,3.15
2019-05-29T01:18:58.759Z,2.80
2019-05-29T01:21:30.928Z,3.37
2019-05-29T01:24:01.654Z,2.70
2019-05-29T01:26:33.606Z,3.00
2019-05-29T01:29:05.121Z,2.85
2019-05-29T01:31:35.901Z,2.90
2019-05-29T01:34:06.556Z,3.08
2019-05-29T01:36:37.303Z,3.10
2019-05-29T01:39:08.893Z,2.77
2019-05-29T01:41:39.678Z,3.22
2019-05-29T01:44:10.716Z,3.25
2019-05-29T01:46:42.451Z,3.00
2019-05-29T01:49:13.031Z,3.20
2019-05-29T01:51:43.696Z,3.20
2019-05-29T01:54:15.441Z,3.90
2019-05-29T01:56:46.108Z,3.30
2019-05-29T01:59:17.838Z,3.12
2019-05-29T02:01:48.526Z,3.40
2019-05-29T02:04:19.838Z,3.83
2019-05-29T02:09:20.265Z,3.77
2019-05-29T02:11:50.869Z,3.72
2019-05-29T02:14:22.623Z,3.40
2019-05-29T02:16:53.751Z,3.30
2019-05-29T02:19:24.565Z,3.45
2019-05-29T02:21:55.276Z,3.58
2019-05-29T02:24:25.921Z,3.58
2019-05-29T02:26:56.620Z,3.87
2019-05-29T02:29:27.341Z,3.72
2019-05-29T02:32:00.421Z,4.60
2019-05-29T02:34:31.021Z,4.58
2019-05-29T02:37:01.728Z,4.53
2019-05-29T02:39:32.403Z,4.83
2019-05-29T02:42:03.088Z,4.20
2019-05-29T02:44:33.714Z,4.55
2019-05-29T02:47:05.333Z,4.75
2019-05-29T02:49:35.881Z,4.50
2019-05-29T02:52:06.542Z,4.72
2019-05-29T02:54:37.224Z,4.60
2019-05-29T02:57:07.863Z,5.05
2019-05-29T02:59:38.633Z,5.05
2019-05-29T03:02:10.089Z,4.92
2019-05-29T03:04:42.834Z,4.95
2019-05-29T03:07:13.478Z,5.30
2019-05-29T03:09:44.165Z,5.40
2019-05-29T03:12:17.953Z,5.70
2019-05-29T03:14:48.478Z,5.45
2019-05-29T03:17:19.201Z,5.60
2019-05-29T03:19:49.910Z,5.53
2019-05-29T03:22:20.670Z,6.05
2019-05-29T03:24:51.368Z,6.15
2019-05-29T03:27:22.129Z,6.33
2019-05-29T03:29:55.839Z,6.12
2019-05-29T03:32:28.003Z,6.30
2019-05-29T03:34:58.891Z,6.75
2019-05-29T03:37:30.336Z,7.67
2019-05-29T03:40:01.171Z,6.83
2019-05-29T03:42:32.604Z,8.63
2019-05-29T03:45:03.388Z,8.68
2019-05-29T03:47:35.078Z,8.35
2019-05-29T03:50:06.294Z,8.05
2019-05-29T03:52:38.994Z,8.63
2019-05-29T03:55:09.329Z,8.25
2019-05-29T03:57:41.136Z,9.23
2019-05-29T04:00:13.648Z,8.70
2019-05-29T04:02:44.526Z,9.05
2019-05-29T04:05:15.309Z,8.40
2019-05-29T04:07:45.988Z,9.93
2019-05-29T04:10:22.844Z,9.68
2019-05-29T04:12:53.558Z,9.03
2019-05-29T04:15:24.475Z,9.05
2019-05-29T04:17:56.542Z,8.95
2019-05-29T04:20:27.635Z,9.00
2019-05-29T04:23:00.015Z,9.03
2019-05-29T04:25:38.329Z,8.10
2019-05-29T04:28:09.245Z,8.48
2019-05-29T04:30:39.900Z,9.18
2019-05-29T04:33:13.924Z,8.20
2019-05-29T04:35:44.751Z,8.45
2019-05-29T04:38:17.464Z,8.10
2019-05-29T04:40:48.216Z,7.72
2019-05-29T04:43:19.002Z,8.05
2019-05-29T04:45:50.152Z,7.65
2019-05-29T04:48:20.906Z,8.15
2019-05-29T04:50:52.577Z,8.55
2019-05-29T04:53:26.812Z,7.50
2019-05-29T04:55:57.522Z,7.50
2019-05-29T04:58:28.770Z,7.62
2019-05-29T05:03:37.179Z,7.12
2019-05-29T05:06:08.170Z,8.15
2019-05-29T05:08:40.212Z,7.80
2019-05-29T05:11:12.423Z,8.05
2019-05-29T05:16:12.811Z,6.65
2019-05-29T05:18:43.549Z,6.60
2019-05-29T05:21:14.174Z,7.03
2019-05-29T05:23:47.555Z,7.15
2019-05-29T05:26:18.474Z,6.80
2019-05-29T05:28:51.484Z,6.58
2019-05-29T05:31:22.913Z,6.45
2019-05-29T05:33:53.602Z,6.80
2019-05-29T05:36:24.489Z,6.92
2019-05-29T05:38:56.464Z,6.35
2019-05-29T05:41:27.114Z,6.72
2019-05-29T05:43:59.005Z,6.50
2019-05-29T05:46:32.850Z,6.55
2019-05-29T05:49:03.702Z,6.30
2019-05-29T05:51:38.145Z,6.78
2019-05-29T05:54:06.735Z,6.28
2019-05-29T05:56:37.940Z,7.92
2019-05-29T05:59:08.847Z,6.55
2019-05-29T06:01:42.119Z,6.45
2019-05-29T06:04:15.482Z,6.60
2019-05-29T06:06:46.570Z,6.35
2019-05-29T06:09:17.275Z,6.83
2019-05-29T06:11:49.113Z,7.42
2019-05-29T06:14:19.836Z,7.33
2019-05-29T06:16:50.476Z,7.53
2019-05-29T06:19:21.217Z,7.90
2019-05-29T06:21:51.941Z,7.03
2019-05-29T06:24:22.629Z,7.47
2019-05-29T06:26:53.262Z,7.67
2019-05-29T06:29:23.933Z,8.08
2019-05-29T06:31:54.603Z,8.03
2019-05-29T06:34:26.863Z,7.90
2019-05-29T06:39:27.170Z,9.18
2019-05-29T06:41:57.814Z,8.95
2019-05-29T06:44:28.430Z,9.00
2019-05-29T06:46:58.905Z,9.48
2019-05-29T06:49:30.084Z,8.85
2019-05-29T06:52:00.983Z,10.32
2019-05-29T06:54:33.067Z,9.60
2019-05-29T06:57:15.759Z,9.20
2019-05-29T06:59:46.456Z,9.20
2019-05-29T07:02:19.441Z,8.78
2019-05-29T07:04:50.212Z,9.18
2019-05-29T07:07:20.943Z,8.23
2019-05-29T07:09:54.338Z,8.03
2019-05-29T07:12:25.115Z,7.78
2019-05-29T07:15:01.174Z,6.85
2019-05-29T07:17:32.864Z,7.20
2019-05-29T07:20:04.400Z,6.20
2019-05-29T07:22:36.810Z,5.55
2019-05-29T07:25:08.230Z,4.90
2019-05-29T07:30:09.951Z,5.00
2019-05-29T07:35:13.310Z,4.17
2019-05-29T07:37:44.072Z,4.92
2019-05-29T07:40:15.324Z,4.53
2019-05-29T07:45:17.981Z,4.42
2019-05-29T07:47:51.054Z,4.15
2019-05-29T07:50:21.850Z,4.08
2019-05-29T07:52:52.597Z,3.65
2019-05-29T07:55:24.324Z,3.90
2019-05-29T07:58:03.118Z,3.52
2019-05-29T08:03:35.205Z,4.22
2019-05-29T08:06:06.198Z,3.60
2019-05-29T08:08:37.332Z,2.95
2019-05-29T08:11:09.254Z,3.10
2019-05-29T08:13:41.422Z,2.17
2019-05-29T08:16:15.395Z,2.58
2019-05-29T08:18:49.021Z,2.00
2019-05-29T08:21:22.099Z,1.90
2019-05-29T08:23:53.441Z,1.70
2019-05-29T08:26:28.316Z,1.50
2019-05-29T08:29:02.095Z,1.45
2019-05-29T08:31:33.024Z,1.45
2019-05-29T08:34:05.629Z,1.80
2019-05-29T08:36:36.995Z,1.30
2019-05-29T08:41:53.665Z,1.40
2019-05-29T08:44:13.647Z,1.70
2019-05-29T08:47:01.415Z,2.25
2019-05-29T08:49:19.463Z,1.10
2019-05-29T08:51:50.497Z,1.30
2019-05-29T08:54:24.158Z,1.85
2019-05-29T08:56:54.440Z,0.95
2019-05-29T08:59:25.085Z,1.10
2019-05-29T09:01:55.810Z,0.98
2019-05-29T09:04:26.533Z,1.32
2019-05-29T09:06:57.213Z,1.55
2019-05-29T09:09:27.854Z,1.60
2019-05-29T09:11:58.487Z,1.52
2019-05-29T09:14:29.263Z,1.82
2019-05-29T09:16:59.886Z,1.32
2019-05-29T09:19:30.523Z,1.50
2019-05-29T09:22:01.199Z,2.00
2019-05-29T09:24:32.096Z,1.85
2019-05-29T09:27:02.591Z,1.42
2019-05-29T09:29:34.277Z,1.20
2019-05-29T09:32:04.941Z,1.17
2019-05-29T09:34:35.909Z,1.05
2019-05-29T09:37:06.509Z,1.25
2019-05-29T09:39:37.184Z,1.30
2019-05-29T09:42:07.883Z,1.77
2019-05-29T09:44:40.061Z,1.30
2019-05-29T09:47:12.019Z,1.37
2019-05-29T09:49:42.724Z,1.60
2019-05-29T09:52:13.782Z,1.60
2019-05-29T09:54:46.341Z,1.47
2019-05-29T09:57:17.062Z,1.35
2019-05-29T09:59:47.825Z,1.20
2019-05-29T10:02:18.658Z,1.60
2019-05-29T10:04:49.212Z,1.30
2019-05-29T10:07:19.919Z,1.37
2019-05-29T10:09:50.713Z,1.67
2019-05-29T10:12:21.451Z,1.80
2019-05-29T10:14:53.693Z,1.77
2019-05-29T10:17:25.556Z,1.70
2019-05-29T10:19:57.228Z,1.57
2019-05-29T10:22:28.434Z,1.90
2019-05-29T10:25:00.008Z,1.45
2019-05-29T10:27:30.805Z,1.67
2019-05-29T10:30:01.441Z,1.60
2019-05-29T10:35:04.576Z,1.50
2019-05-29T10:37:35.404Z,1.60
2019-05-29T10:40:06.775Z,1.40
2019-05-29T10:42:37.576Z,1.70
2019-05-29T10:45:08.988Z,1.52
2019-05-29T10:47:39.711Z,1.57
2019-05-29T10:50:11.165Z,1.40
2019-05-29T10:52:42.126Z,1.92
2019-05-29T10:55:15.957Z,1.57
2019-05-29T10:57:46.722Z,1.77
2019-05-29T11:00:17.949Z,1.70
2019-05-29T11:05:20.122Z,1.40
2019-05-29T11:07:51.893Z,1.30
2019-05-29T11:10:23.149Z,1.45
2019-05-29T11:15:23.473Z,1.52
2019-05-29T11:17:55.339Z,1.67
2019-05-29T11:20:27.850Z,1.70
2019-05-29T11:22:58.557Z,3.37
2019-05-29T11:25:29.340Z,2.72
2019-05-29T11:28:00.007Z,2.95
2019-05-29T11:30:31.237Z,1.90
2019-05-29T11:33:02.628Z,1.70
2019-05-29T11:35:33.346Z,1.42
2019-05-29T11:38:04.173Z,1.00
2019-05-29T11:40:36.197Z,1.00
2019-05-29T11:43:07.141Z,1.35
2019-05-29T11:45:37.890Z,1.77
2019-05-29T11:48:09.503Z,1.80
2019-05-29T11:50:40.314Z,1.10
2019-05-29T11:53:11.088Z,1.50
2019-05-29T11:55:42.705Z,1.10
2019-05-29T11:58:30.044Z,2.10
2019-05-29T12:00:47.067Z,1.60
2019-05-29T12:03:20.596Z,1.70
2019-05-29T12:05:53.376Z,1.57
2019-05-29T12:08:25.077Z,1.25
2019-05-29T12:10:57.169Z,1.75
2019-05-29T12:13:29.674Z,1.42
2019-05-29T12:16:01.856Z,1.30
2019-05-29T12:18:33.391Z,0.95
2019-05-29T12:21:04.129Z,1.20
2019-05-29T12:23:38.974Z,1.22
2019-05-29T12:26:21.820Z,2.10
2019-05-29T12:28:42.033Z,1.50
2019-05-29T12:31:12.754Z,1.47
2019-05-29T12:33:43.442Z,1.95
2019-05-29T12:36:14.569Z,1.65
2019-05-29T12:38:45.230Z,1.62
2019-05-29T12:41:15.993Z,2.12
2019-05-29T12:46:16.649Z,1.70
2019-05-29T12:48:47.319Z,1.80
2019-05-29T12:51:17.996Z,1.60
2019-05-29T12:53:48.789Z,1.90
2019-05-29T12:56:20.006Z,1.82
2019-05-29T12:58:51.114Z,1.70
2019-05-29T13:01:21.767Z,1.80
2019-05-29T13:03:52.493Z,1.82
2019-05-29T13:06:22.981Z,1.80
2019-05-29T13:08:54.595Z,1.70
2019-05-29T13:11:25.348Z,1.80
2019-05-29T13:13:56.296Z,1.27
2019-05-29T13:16:27.017Z,2.15
2019-05-29T13:18:58.946Z,2.00
2019-05-29T13:21:29.762Z,1.92
2019-05-29T13:24:02.260Z,1.70
2019-05-29T13:26:34.237Z,1.30
2019-05-29T13:29:06.037Z,1.85
2019-05-29T13:31:36.794Z,1.80
2019-05-29T13:34:07.422Z,1.70
2019-05-29T13:36:38.131Z,1.70
2019-05-29T13:39:09.328Z,1.95
2019-05-29T13:41:39.920Z,2.02
2019-05-29T13:44:10.607Z,2.80
2019-05-29T13:46:41.265Z,2.77
2019-05-29T13:49:11.970Z,3.02
2019-05-29T13:51:42.762Z,1.98
2019-05-29T13:54:17.051Z,2.25
2019-05-29T13:56:45.941Z,1.80
2019-05-29T13:59:16.565Z,1.80
2019-05-29T14:01:48.611Z,1.45
2019-05-29T14:04:19.601Z,1.32
2019-05-29T14:06:52.878Z,0.93
2019-05-29T14:09:23.274Z,0.98
2019-05-29T14:14:23.630Z,2.08
2019-05-29T14:16:54.957Z,1.82
2019-05-29T14:21:55.432Z,1.42
2019-05-29T14:24:29.647Z,1.60
2019-05-29T14:26:58.570Z,1.62
2019-05-29T14:29:29.193Z,1.00
2019-05-29T14:32:00.969Z,1.20
2019-05-29T14:34:33.193Z,1.12
2019-05-29T14:37:04.950Z,1.95
2019-05-29T14:39:36.153Z,1.47
2019-05-29T14:42:08.260Z,0.72
2019-05-29T14:44:39.044Z,1.20
2019-05-29T14:47:10.272Z,0.93
2019-05-29T14:49:40.943Z,1.30
2019-05-29T14:52:12.079Z,1.22
2019-05-29T14:54:44.002Z,1.55
2019-05-29T14:57:24.772Z,1.95
2019-05-29T14:59:48.888Z,1.60
2019-05-29T15:02:23.810Z,1.25
2019-05-29T15:04:52.302Z,1.50
2019-05-29T15:07:23.179Z,1.22
2019-05-29T15:09:54.038Z,1.70
2019-05-29T15:12:24.755Z,1.77
2019-05-29T15:14:55.802Z,1.40
2019-05-29T15:17:26.650Z,2.02
2019-05-29T15:19:59.936Z,1.65
2019-05-29T15:22:30.779Z,1.95
2019-05-29T15:25:11.277Z,1.62
2019-05-29T15:27:36.565Z,2.33
2019-05-29T15:30:08.793Z,2.60
2019-05-29T15:32:40.094Z,1.60
2019-05-29T15:35:14.880Z,1.45
2019-05-29T15:37:43.540Z,1.62
2019-05-29T15:40:14.922Z,2.15
2019-05-29T15:42:45.653Z,1.65
2019-05-29T15:45:18.284Z,2.20
2019-05-29T15:47:49.202Z,1.75
2019-05-29T15:50:19.944Z,1.98
2019-05-29T15:52:52.853Z,2.20
2019-05-29T15:55:32.226Z,2.05
2019-05-29T15:57:55.950Z,2.42
2019-05-29T16:00:26.755Z,2.05
2019-05-29T16:03:00.322Z,2.20
2019-05-29T16:05:31.161Z,2.80
2019-05-29T16:08:03.470Z,2.02
2019-05-29T16:10:34.163Z,2.62
2019-05-29T16:13:05.062Z,1.65
2019-05-29T16:15:35.765Z,2.50
2019-05-29T16:18:19.075Z,2.00
2019-05-29T16:20:39.347Z,2.40
2019-05-29T16:23:10.884Z,2.12
2019-05-29T16:25:41.642Z,2.15
2019-05-29T16:28:13.079Z,1.60
2019-05-29T16:30:43.863Z,1.37
2019-05-29T16:33:15.071Z,1.90
2019-05-29T16:38:21.917Z,2.05
2019-05-29T16:40:54.925Z,1.70
2019-05-29T16:43:25.799Z,1.80
2019-05-29T16:45:56.374Z,1.92
2019-05-29T16:48:30.160Z,1.17
2019-05-29T16:51:00.913Z,1.55
2019-05-29T16:53:33.001Z,1.50
2019-05-29T16:56:03.704Z,1.82
2019-05-29T16:58:36.290Z,1.72
2019-05-29T17:01:07.077Z,2.15
2019-05-29T17:03:37.920Z,2.17
2019-05-29T17:06:08.834Z,1.82
2019-05-29T17:08:41.601Z,1.50
2019-05-29T17:11:14.708Z,1.77
2019-05-29T17:13:48.270Z,1.55
2019-05-29T17:16:19.025Z,1.67
2019-05-29T17:18:51.354Z,1.70
2019-05-29T17:21:23.244Z,1.40
2019-05-29T17:23:54.988Z,2.00
2019-05-29T17:26:25.818Z,2.27
2019-05-29T17:28:56.510Z,2.00
2019-05-29T17:31:29.203Z,1.60
2019-05-29T17:34:01.778Z,2.08
2019-05-29T17:36:34.335Z,1.67
2019-05-29T17:39:07.642Z,3.10
2019-05-29T17:41:38.815Z,2.40
2019-05-29T17:44:09.483Z,2.85
2019-05-29T17:46:41.896Z,2.72
2019-05-29T17:49:12.758Z,2.80
2019-05-29T17:51:43.527Z,3.50
2019-05-29T17:54:15.681Z,2.87
2019-05-29T17:56:46.927Z,2.62
2019-05-29T18:01:48.621Z,2.58
2019-05-29T18:04:20.498Z,3.25
2019-05-29T18:06:52.408Z,2.83
2019-05-29T18:09:27.446Z,3.25
2019-05-29T18:12:02.583Z,4.28
2019-05-29T18:14:33.739Z,4.00
2019-05-29T18:17:04.518Z,4.62
2019-05-29T18:19:35.545Z,4.62
2019-05-29T18:22:06.292Z,6.20
2019-05-29T18:24:37.098Z,5.25
2019-05-29T18:27:07.810Z,4.58
2019-05-29T18:29:38.872Z,4.78
2019-05-29T18:32:09.969Z,4.12
2019-05-29T18:34:40.650Z,5.17
2019-05-29T18:37:11.487Z,4.37
2019-05-29T18:39:42.236Z,4.67
2019-05-29T18:42:13.184Z,5.03
2019-05-29T18:44:43.897Z,4.97
2019-05-29T18:47:16.764Z,5.80
2019-05-29T18:49:47.575Z,5.35
2019-05-29T18:52:18.326Z,6.35
2019-05-29T18:54:50.186Z,6.83
2019-05-29T18:57:20.960Z,7.40
2019-05-29T18:59:51.743Z,6.97
2019-05-29T19:02:23.345Z,6.78
2019-05-29T19:04:54.120Z,7.95
2019-05-29T19:07:25.629Z,8.05
2019-05-29T19:09:56.583Z,9.38
2019-05-29T19:12:27.850Z,8.25
2019-05-29T19:14:59.728Z,9.28
2019-05-29T19:17:30.622Z,10.95
2019-05-29T19:20:01.631Z,9.10
2019-05-29T19:22:33.650Z,8.95
2019-05-29T19:25:05.105Z,8.75
2019-05-29T19:27:41.700Z,14.25
2019-05-29T19:30:12.994Z,17.42
2019-05-29T19:32:43.762Z,22.15
2019-05-29T19:35:14.577Z,11.73
2019-05-29T19:37:45.311Z,16.05
2019-05-29T19:40:16.706Z,13.43
2019-05-29T19:45:18.175Z,14.03
2019-05-29T19:47:49.268Z,12.70
2019-05-29T19:50:20.183Z,12.25
2019-05-29T19:52:51.077Z,13.75
2019-05-29T19:55:22.027Z,13.88
2019-05-29T19:57:56.464Z,13.60
2019-05-29T20:00:26.032Z,13.28
2019-05-29T20:02:56.880Z,13.95
2019-05-29T20:05:28.815Z,14.07
2019-05-29T20:08:00.592Z,15.50
2019-05-29T20:10:31.723Z,16.45
2019-05-29T20:13:02.412Z,16.93
2019-05-29T20:15:33.978Z,16.70
2019-05-29T20:18:05.047Z,18.05
2019-05-29T20:20:36.504Z,16.82
2019-05-29T20:23:07.484Z,16.62
2019-05-29T20:25:39.067Z,16.80
2019-05-29T20:28:10.164Z,15.60
2019-05-29T20:30:40.903Z,17.12
2019-05-29T20:33:11.788Z,16.12
2019-05-29T20:35:43.191Z,17.07
2019-05-29T20:38:13.930Z,18.55
2019-05-29T20:40:45.042Z,18.00
2019-05-29T20:43:15.647Z,19.05
2019-05-29T20:45:46.515Z,20.80
2019-05-29T20:48:17.376Z,20.05
2019-05-29T20:50:48.951Z,20.05
2019-05-29T20:53:19.603Z,20.27
2019-05-29T20:55:50.347Z,20.00
2019-05-29T20:58:24.402Z,19.85
2019-05-29T21:00:53.374Z,19.25
2019-05-29T21:03:24.125Z,20.37
2019-05-29T21:05:54.895Z,20.65
2019-05-29T21:08:25.665Z,20.75
2019-05-29T21:10:56.445Z,21.27
2019-05-29T21:13:27.635Z,22.50
2019-05-29T21:15:58.407Z,20.12
2019-05-29T21:18:29.351Z,22.80
2019-05-29T21:23:30.293Z,20.82
2019-05-29T21:26:01.187Z,21.73
2019-05-29T21:28:43.595Z,21.20
2019-05-29T21:31:10.386Z,20.97
2019-05-29T21:33:45.044Z,20.52
2019-05-29T21:36:14.155Z,20.43
2019-05-29T21:38:46.390Z,26.00
2019-05-29T21:41:17.832Z,25.27
2019-05-29T21:46:18.494Z,25.35
2019-05-29T21:48:55.201Z,21.27
2019-05-29T21:51:28.784Z,24.80
2019-05-29T21:54:00.471Z,21.17
2019-05-29T21:56:31.481Z,19.35
2019-05-29T21:59:04.309Z,21.80
2019-05-29T22:01:37.929Z,19.60
2019-05-29T22:04:09.046Z,20.75
2019-05-29T22:06:40.554Z,18.25
2019-05-29T22:09:14.466Z,17.98
2019-05-29T22:11:45.302Z,17.60
2019-05-29T22:14:16.076Z,17.48
2019-05-29T22:16:46.967Z,16.82
2019-05-29T22:19:20.043Z,14.63
2019-05-29T22:21:51.166Z,15.43
2019-05-29T22:24:22.297Z,15.83
2019-05-29T22:26:53.194Z,14.90
2019-05-29T22:29:24.176Z,16.23
2019-05-29T22:31:55.376Z,14.95
2019-05-29T22:34:33.585Z,15.35
2019-05-29T22:37:05.241Z,14.40
2019-05-29T22:39:36.902Z,15.30
2019-05-29T22:42:07.868Z,15.25
2019-05-29T22:44:39.744Z,15.03
2019-05-29T22:47:10.485Z,13.30
2019-05-29T22:49:41.226Z,13.28
2019-05-29T22:52:12.264Z,14.95
2019-05-29T22:54:43.161Z,14.15
2019-05-29T22:57:14.138Z,14.75
2019-05-29T22:59:45.022Z,13.95
2019-05-29T23:02:15.734Z,14.55
2019-05-29T23:04:46.495Z,14.03
2019-05-29T23:07:17.306Z,14.33
2019-05-29T23:09:47.991Z,14.63
2019-05-29T23:12:18.730Z,15.20
2019-05-29T23:14:49.352Z,15.25
2019-05-29T23:17:20.221Z,15.85
2019-05-29T23:19:52.330Z,15.80
2019-05-29T23:22:24.583Z,15.50
2019-05-29T23:24:56.376Z,13.22
2019-05-29T23:27:29.646Z,15.55
2019-05-29T23:30:01.060Z,15.13
2019-05-29T23:32:33.351Z,15.58
2019-05-29T23:35:04.175Z,15.90
2019-05-29T23:37:34.891Z,16.23
2019-05-29T23:40:05.849Z,15.23
2019-05-29T23:42:39.567Z,15.80
2019-05-29T23:45:10.789Z,15.35
2019-05-29T23:50:12.702Z,15.58
2019-05-29T23:52:43.326Z,15.85
2019-05-29T23:55:14.298Z,14.28
2019-05-29T23:57:45.102Z,14.60
